EDDC/DRS METAR and TAF weather

Enter ICAO airport designator
Station Type Date Time Source
EDDC METAR 2019/03/21 03:20 UTC NOAA

EDDC 210320Z 22004KT 9999 BKN041 05/M01 Q1034


Station Type Date Time Source
EDDC Decoded METAR 2019/03/21 03:20 UTC NOAA

Dresden-Klotzsche, Germany (EDDC) 51-08N 013-45E 232M
Mar 20, 2019 - 11:20 PM EDT / 2019.03.21 0320 UTC
Wind: from the SW (220 degrees) at 5 MPH (4 KT):0
Visibility: greater than 7 mile(s):0
Sky conditions: mostly cloudy
Temperature: 41 F (5 C)
Dew Point: 30 F (-1 C)
Relative Humidity: 65%
Pressure (altimeter): 30.53 in. Hg (1034 hPa)
ob: EDDC 210320Z 22004KT 9999 BKN041 05/M01 Q1034
cycle: 3

Station Type Date Time Source
EDDC TAF 2019/03/20 18:27 UTC NOAA

TAF EDDC 201700Z 2018/2118 27004KT 9999 SCT045
BECMG 2018/2020 21006KT
BECMG 2109/2111 30006KT

Example: see airport list